sensor_id;sensor_type;location;lat;lon;timestamp;P1;durP1;ratioP1;P2;durP2;ratioP2
44189;SDS011;29856;52.144;5.430;2023-02-11T00:00:56;30.83;;;5.22;;
44189;SDS011;29856;52.144;5.430;2023-02-11T00:03:22;30.10;;;5.15;;
44189;SDS011;29856;52.144;5.430;2023-02-11T00:06:00;35.15;;;4.65;;
44189;SDS011;29856;52.144;5.430;2023-02-11T00:08:28;31.17;;;5.93;;
44189;SDS011;29856;52.144;5.430;2023-02-11T00:10:54;30.52;;;4.50;;
44189;SDS011;29856;52.144;5.430;2023-02-11T00:13:20;31.27;;;5.95;;
44189;SDS011;29856;52.144;5.430;2023-02-11T00:15:47;27.92;;;5.20;;
44189;SDS011;29856;52.144;5.430;2023-02-11T00:18:12;30.60;;;5.10;;
44189;SDS011;29856;52.144;5.430;2023-02-11T00:20:38;29.50;;;4.70;;
44189;SDS011;29856;52.144;5.430;2023-02-11T00:23:04;26.90;;;5.57;;
44189;SDS011;29856;52.144;5.430;2023-02-11T00:25:29;33.50;;;5.95;;
44189;SDS011;29856;52.144;5.430;2023-02-11T00:27:55;30.20;;;5.03;;
44189;SDS011;29856;52.144;5.430;2023-02-11T00:30:20;29.55;;;4.85;;
44189;SDS011;29856;52.144;5.430;2023-02-11T00:32:46;30.00;;;4.78;;
44189;SDS011;29856;52.144;5.430;2023-02-11T00:35:12;29.95;;;4.63;;
44189;SDS011;29856;52.144;5.430;2023-02-11T00:37:38;27.65;;;5.07;;
44189;SDS011;29856;52.144;5.430;2023-02-11T00:40:03;20.60;;;4.30;;
44189;SDS011;29856;52.144;5.430;2023-02-11T00:42:30;23.75;;;4.55;;
44189;SDS011;29856;52.144;5.430;2023-02-11T00:44:55;28.50;;;5.05;;
44189;SDS011;29856;52.144;5.430;2023-02-11T00:47:21;26.48;;;4.53;;
44189;SDS011;29856;52.144;5.430;2023-02-11T00:49:46;25.63;;;5.03;;
44189;SDS011;29856;52.144;5.430;2023-02-11T00:52:12;30.23;;;4.47;;
44189;SDS011;29856;52.144;5.430;2023-02-11T00:54:37;25.60;;;5.50;;
44189;SDS011;29856;52.144;5.430;2023-02-11T00:57:03;30.52;;;4.82;;
44189;SDS011;29856;52.144;5.430;2023-02-11T00:59:29;26.10;;;4.90;;
44189;SDS011;29856;52.144;5.430;2023-02-11T01:01:54;28.38;;;5.50;;
44189;SDS011;29856;52.144;5.430;2023-02-11T01:04:20;25.90;;;5.07;;
44189;SDS011;29856;52.144;5.430;2023-02-11T01:06:45;25.33;;;4.78;;
44189;SDS011;29856;52.144;5.430;2023-02-11T01:09:11;32.35;;;4.78;;
44189;SDS011;29856;52.144;5.430;2023-02-11T01:11:36;27.85;;;4.95;;
44189;SDS011;29856;52.144;5.430;2023-02-11T01:14:02;28.33;;;4.43;;
44189;SDS011;29856;52.144;5.430;2023-02-11T01:16:27;23.25;;;4.68;;
44189;SDS011;29856;52.144;5.430;2023-02-11T01:18:53;23.45;;;4.45;;
44189;SDS011;29856;52.144;5.430;2023-02-11T01:21:18;31.23;;;5.65;;
44189;SDS011;29856;52.144;5.430;2023-02-11T01:23:44;23.08;;;4.75;;
44189;SDS011;29856;52.144;5.430;2023-02-11T01:26:09;27.20;;;4.95;;
44189;SDS011;29856;52.144;5.430;2023-02-11T01:28:35;30.02;;;6.85;;
44189;SDS011;29856;52.144;5.430;2023-02-11T01:31:00;24.33;;;4.75;;
44189;SDS011;29856;52.144;5.430;2023-02-11T01:33:26;39.33;;;5.78;;
44189;SDS011;29856;52.144;5.430;2023-02-11T01:35:52;27.05;;;4.32;;
44189;SDS011;29856;52.144;5.430;2023-02-11T01:38:19;27.63;;;5.53;;
44189;SDS011;29856;52.144;5.430;2023-02-11T01:40:48;24.45;;;4.85;;
44189;SDS011;29856;52.144;5.430;2023-02-11T01:43:15;26.90;;;5.20;;
44189;SDS011;29856;52.144;5.430;2023-02-11T01:48:09;27.05;;;4.55;;
44189;SDS011;29856;52.144;5.430;2023-02-11T01:50:39;30.58;;;4.93;;
44189;SDS011;29856;52.144;5.430;2023-02-11T01:53:06;28.10;;;5.05;;
44189;SDS011;29856;52.144;5.430;2023-02-11T01:55:34;21.02;;;5.07;;
44189;SDS011;29856;52.144;5.430;2023-02-11T01:58:00;23.92;;;4.60;;
44189;SDS011;29856;52.144;5.430;2023-02-11T02:00:35;20.73;;;4.85;;
44189;SDS011;29856;52.144;5.430;2023-02-11T02:10:43;24.80;;;4.90;;
44189;SDS011;29856;52.144;5.430;2023-02-11T02:13:12;23.38;;;4.70;;
44189;SDS011;29856;52.144;5.430;2023-02-11T02:15:39;28.48;;;5.03;;
44189;SDS011;29856;52.144;5.430;2023-02-11T02:26:50;21.88;;;5.07;;
44189;SDS011;29856;52.144;5.430;2023-02-11T02:35:15;27.27;;;4.55;;
44189;SDS011;29856;52.144;5.430;2023-02-11T02:37:56;25.73;;;4.85;;
44189;SDS011;29856;52.144;5.430;2023-02-11T02:40:32;25.65;;;5.25;;
44189;SDS011;29856;52.144;5.430;2023-02-11T02:45:31;21.42;;;5.05;;
44189;SDS011;29856;52.144;5.430;2023-02-11T02:47:57;29.80;;;5.60;;
44189;SDS011;29856;52.144;5.430;2023-02-11T02:50:23;20.27;;;4.28;;
44189;SDS011;29856;52.144;5.430;2023-02-11T02:55:59;23.40;;;4.80;;
44189;SDS011;29856;52.144;5.430;2023-02-11T03:01:46;24.88;;;4.95;;
44189;SDS011;29856;52.144;5.430;2023-02-11T03:03:58;24.85;;;5.10;;
44189;SDS011;29856;52.144;5.430;2023-02-11T03:06:33;26.08;;;5.40;;
44189;SDS011;29856;52.144;5.430;2023-02-11T03:09:27;31.83;;;5.82;;
44189;SDS011;29856;52.144;5.430;2023-02-11T03:16:59;28.98;;;5.65;;
44189;SDS011;29856;52.144;5.430;2023-02-11T03:19:35;17.90;;;4.60;;
44189;SDS011;29856;52.144;5.430;2023-02-11T03:22:06;28.80;;;5.85;;
44189;SDS011;29856;52.144;5.430;2023-02-11T03:24:37;22.48;;;5.20;;
44189;SDS011;29856;52.144;5.430;2023-02-11T03:27:09;28.00;;;5.47;;
44189;SDS011;29856;52.144;5.430;2023-02-11T03:29:53;27.27;;;6.00;;
44189;SDS011;29856;52.144;5.430;2023-02-11T03:32:28;25.88;;;6.07;;
44189;SDS011;29856;52.144;5.430;2023-02-11T03:34:58;28.08;;;6.35;;
44189;SDS011;29856;52.144;5.430;2023-02-11T03:37:32;21.95;;;5.07;;
44189;SDS011;29856;52.144;5.430;2023-02-11T03:42:39;25.92;;;6.05;;
44189;SDS011;29856;52.144;5.430;2023-02-11T03:45:15;27.25;;;7.03;;
44189;SDS011;29856;52.144;5.430;2023-02-11T03:47:45;25.90;;;6.38;;
44189;SDS011;29856;52.144;5.430;2023-02-11T03:50:14;26.33;;;6.95;;
44189;SDS011;29856;52.144;5.430;2023-02-11T03:52:41;22.52;;;6.15;;
44189;SDS011;29856;52.144;5.430;2023-02-11T03:55:10;24.65;;;6.90;;
44189;SDS011;29856;52.144;5.430;2023-02-11T03:57:39;31.80;;;7.63;;
44189;SDS011;29856;52.144;5.430;2023-02-11T04:00:05;27.52;;;7.93;;
44189;SDS011;29856;52.144;5.430;2023-02-11T04:02:33;34.47;;;8.85;;
44189;SDS011;29856;52.144;5.430;2023-02-11T04:05:00;35.40;;;9.05;;
44189;SDS011;29856;52.144;5.430;2023-02-11T04:07:26;29.48;;;8.55;;
44189;SDS011;29856;52.144;5.430;2023-02-11T04:09:52;26.02;;;6.88;;
44189;SDS011;29856;52.144;5.430;2023-02-11T04:12:17;25.75;;;6.00;;
44189;SDS011;29856;52.144;5.430;2023-02-11T04:14:43;24.42;;;6.72;;
44189;SDS011;29856;52.144;5.430;2023-02-11T04:17:09;40.85;;;8.35;;
44189;SDS011;29856;52.144;5.430;2023-02-11T04:19:35;29.50;;;9.05;;
44189;SDS011;29856;52.144;5.430;2023-02-11T04:22:00;29.77;;;7.93;;
44189;SDS011;29856;52.144;5.430;2023-02-11T04:24:26;26.88;;;8.07;;
44189;SDS011;29856;52.144;5.430;2023-02-11T04:26:52;25.38;;;9.43;;
44189;SDS011;29856;52.144;5.430;2023-02-11T04:29:17;33.20;;;8.95;;
44189;SDS011;29856;52.144;5.430;2023-02-11T04:31:43;29.67;;;8.38;;
44189;SDS011;29856;52.144;5.430;2023-02-11T04:34:08;26.95;;;8.05;;
44189;SDS011;29856;52.144;5.430;2023-02-11T04:36:34;36.97;;;9.73;;
44189;SDS011;29856;52.144;5.430;2023-02-11T04:38:59;23.27;;;8.10;;
44189;SDS011;29856;52.144;5.430;2023-02-11T04:41:25;35.15;;;10.27;;
44189;SDS011;29856;52.144;5.430;2023-02-11T04:43:51;38.13;;;11.00;;
44189;SDS011;29856;52.144;5.430;2023-02-11T04:46:16;32.03;;;10.32;;
44189;SDS011;29856;52.144;5.430;2023-02-11T04:48:41;29.83;;;10.52;;
44189;SDS011;29856;52.144;5.430;2023-02-11T04:51:07;32.05;;;11.52;;
44189;SDS011;29856;52.144;5.430;2023-02-11T04:53:32;30.38;;;11.23;;
44189;SDS011;29856;52.144;5.430;2023-02-11T04:55:58;37.92;;;10.90;;
44189;SDS011;29856;52.144;5.430;2023-02-11T04:58:23;40.80;;;11.88;;
44189;SDS011;29856;52.144;5.430;2023-02-11T05:00:49;39.60;;;12.13;;
44189;SDS011;29856;52.144;5.430;2023-02-11T05:03:14;30.63;;;10.68;;
44189;SDS011;29856;52.144;5.430;2023-02-11T05:05:40;34.13;;;12.10;;
44189;SDS011;29856;52.144;5.430;2023-02-11T05:08:07;38.08;;;11.95;;
44189;SDS011;29856;52.144;5.430;2023-02-11T05:10:33;35.10;;;11.18;;
44189;SDS011;29856;52.144;5.430;2023-02-11T05:12:59;31.35;;;11.73;;
44189;SDS011;29856;52.144;5.430;2023-02-11T05:15:25;36.05;;;12.50;;
44189;SDS011;29856;52.144;5.430;2023-02-11T05:17:51;40.35;;;14.55;;
44189;SDS011;29856;52.144;5.430;2023-02-11T05:20:16;32.08;;;13.25;;
44189;SDS011;29856;52.144;5.430;2023-02-11T05:22:45;36.95;;;13.48;;
44189;SDS011;29856;52.144;5.430;2023-02-11T05:25:10;41.55;;;14.63;;
44189;SDS011;29856;52.144;5.430;2023-02-11T05:27:36;46.15;;;15.45;;
44189;SDS011;29856;52.144;5.430;2023-02-11T05:30:01;35.15;;;13.57;;
44189;SDS011;29856;52.144;5.430;2023-02-11T05:32:28;30.42;;;13.55;;
44189;SDS011;29856;52.144;5.430;2023-02-11T05:34:53;36.90;;;14.02;;
44189;SDS011;29856;52.144;5.430;2023-02-11T05:37:19;35.72;;;13.98;;
44189;SDS011;29856;52.144;5.430;2023-02-11T05:39:44;32.03;;;12.85;;
44189;SDS011;29856;52.144;5.430;2023-02-11T05:42:10;38.40;;;13.85;;
44189;SDS011;29856;52.144;5.430;2023-02-11T05:44:35;32.40;;;14.00;;
44189;SDS011;29856;52.144;5.430;2023-02-11T05:47:01;36.45;;;14.02;;
44189;SDS011;29856;52.144;5.430;2023-02-11T05:49:26;39.03;;;15.35;;
44189;SDS011;29856;52.144;5.430;2023-02-11T05:51:52;34.45;;;11.90;;
44189;SDS011;29856;52.144;5.430;2023-02-11T05:54:17;34.08;;;15.15;;
44189;SDS011;29856;52.144;5.430;2023-02-11T05:56:42;30.10;;;13.75;;
44189;SDS011;29856;52.144;5.430;2023-02-11T05:59:08;36.10;;;13.80;;
44189;SDS011;29856;52.144;5.430;2023-02-11T06:01:35;37.30;;;15.02;;
44189;SDS011;29856;52.144;5.430;2023-02-11T06:04:01;37.95;;;13.23;;
44189;SDS011;29856;52.144;5.430;2023-02-11T06:06:26;33.83;;;13.55;;
44189;SDS011;29856;52.144;5.430;2023-02-11T06:08:52;36.67;;;16.67;;
44189;SDS011;29856;52.144;5.430;2023-02-11T06:11:17;36.78;;;14.82;;
44189;SDS011;29856;52.144;5.430;2023-02-11T06:13:43;32.47;;;15.23;;
44189;SDS011;29856;52.144;5.430;2023-02-11T06:16:08;37.75;;;14.63;;
44189;SDS011;29856;52.144;5.430;2023-02-11T06:18:34;41.05;;;14.88;;
44189;SDS011;29856;52.144;5.430;2023-02-11T06:20:59;39.65;;;16.33;;
44189;SDS011;29856;52.144;5.430;2023-02-11T06:23:25;32.22;;;15.07;;
44189;SDS011;29856;52.144;5.430;2023-02-11T06:25:51;35.17;;;14.77;;
44189;SDS011;29856;52.144;5.430;2023-02-11T06:28:17;38.70;;;17.13;;
44189;SDS011;29856;52.144;5.430;2023-02-11T06:30:43;33.85;;;15.73;;
44189;SDS011;29856;52.144;5.430;2023-02-11T06:33:08;32.63;;;15.10;;
44189;SDS011;29856;52.144;5.430;2023-02-11T06:35:34;44.55;;;19.95;;
44189;SDS011;29856;52.144;5.430;2023-02-11T06:38:01;43.67;;;19.00;;
44189;SDS011;29856;52.144;5.430;2023-02-11T06:40:27;36.60;;;19.58;;
44189;SDS011;29856;52.144;5.430;2023-02-11T06:42:52;37.50;;;17.33;;
44189;SDS011;29856;52.144;5.430;2023-02-11T06:45:18;34.38;;;17.15;;
44189;SDS011;29856;52.144;5.430;2023-02-11T06:47:43;41.15;;;20.33;;
44189;SDS011;29856;52.144;5.430;2023-02-11T06:50:10;42.00;;;19.30;;
44189;SDS011;29856;52.144;5.430;2023-02-11T06:52:36;35.90;;;18.17;;
44189;SDS011;29856;52.144;5.430;2023-02-11T06:55:02;43.15;;;19.27;;
44189;SDS011;29856;52.144;5.430;2023-02-11T06:57:29;51.72;;;20.92;;
44189;SDS011;29856;52.144;5.430;2023-02-11T06:59:55;42.17;;;19.63;;
44189;SDS011;29856;52.144;5.430;2023-02-11T07:02:20;50.67;;;21.23;;
44189;SDS011;29856;52.144;5.430;2023-02-11T07:04:46;41.33;;;21.10;;
44189;SDS011;29856;52.144;5.430;2023-02-11T07:07:12;36.03;;;19.65;;
44189;SDS011;29856;52.144;5.430;2023-02-11T07:09:37;43.25;;;21.55;;
44189;SDS011;29856;52.144;5.430;2023-02-11T07:12:03;40.15;;;20.58;;
44189;SDS011;29856;52.144;5.430;2023-02-11T07:14:28;47.72;;;20.50;;
44189;SDS011;29856;52.144;5.430;2023-02-11T07:16:54;42.53;;;19.77;;
44189;SDS011;29856;52.144;5.430;2023-02-11T07:19:19;46.05;;;22.02;;
44189;SDS011;29856;52.144;5.430;2023-02-11T07:21:45;44.42;;;21.63;;
44189;SDS011;29856;52.144;5.430;2023-02-11T07:24:11;40.55;;;19.15;;
44189;SDS011;29856;52.144;5.430;2023-02-11T07:26:37;48.45;;;22.45;;
44189;SDS011;29856;52.144;5.430;2023-02-11T07:29:02;44.30;;;21.83;;
44189;SDS011;29856;52.144;5.430;2023-02-11T07:31:28;41.88;;;22.30;;
44189;SDS011;29856;52.144;5.430;2023-02-11T07:33:56;48.28;;;23.90;;
44189;SDS011;29856;52.144;5.430;2023-02-11T07:36:24;51.13;;;22.88;;
44189;SDS011;29856;52.144;5.430;2023-02-11T07:38:50;40.03;;;21.13;;
44189;SDS011;29856;52.144;5.430;2023-02-11T07:41:17;46.05;;;22.42;;
44189;SDS011;29856;52.144;5.430;2023-02-11T07:43:44;46.42;;;23.98;;
44189;SDS011;29856;52.144;5.430;2023-02-11T07:46:10;48.55;;;22.88;;
44189;SDS011;29856;52.144;5.430;2023-02-11T07:48:44;39.80;;;21.25;;
44189;SDS011;29856;52.144;5.430;2023-02-11T07:51:14;48.63;;;21.90;;
44189;SDS011;29856;52.144;5.430;2023-02-11T07:53:42;46.25;;;23.65;;
44189;SDS011;29856;52.144;5.430;2023-02-11T07:56:07;51.03;;;22.90;;
44189;SDS011;29856;52.144;5.430;2023-02-11T07:58:35;41.80;;;22.52;;
44189;SDS011;29856;52.144;5.430;2023-02-11T08:01:04;39.42;;;20.60;;
44189;SDS011;29856;52.144;5.430;2023-02-11T08:03:31;42.92;;;22.58;;
44189;SDS011;29856;52.144;5.430;2023-02-11T08:05:57;43.70;;;23.33;;
44189;SDS011;29856;52.144;5.430;2023-02-11T08:08:24;44.10;;;20.15;;
44189;SDS011;29856;52.144;5.430;2023-02-11T08:10:50;46.72;;;21.05;;
44189;SDS011;29856;52.144;5.430;2023-02-11T08:13:16;41.75;;;22.13;;
44189;SDS011;29856;52.144;5.430;2023-02-11T08:15:41;45.50;;;23.20;;
44189;SDS011;29856;52.144;5.430;2023-02-11T08:18:07;51.67;;;23.75;;
44189;SDS011;29856;52.144;5.430;2023-02-11T08:20:32;44.90;;;22.85;;
44189;SDS011;29856;52.144;5.430;2023-02-11T08:22:57;47.03;;;22.20;;
44189;SDS011;29856;52.144;5.430;2023-02-11T08:25:23;43.05;;;22.50;;
44189;SDS011;29856;52.144;5.430;2023-02-11T08:27:48;40.38;;;21.58;;
44189;SDS011;29856;52.144;5.430;2023-02-11T08:30:14;46.50;;;21.65;;
44189;SDS011;29856;52.144;5.430;2023-02-11T08:32:39;41.72;;;21.95;;
44189;SDS011;29856;52.144;5.430;2023-02-11T08:35:05;36.53;;;19.60;;
44189;SDS011;29856;52.144;5.430;2023-02-11T08:37:31;35.63;;;18.67;;
44189;SDS011;29856;52.144;5.430;2023-02-11T08:39:57;38.03;;;18.85;;
44189;SDS011;29856;52.144;5.430;2023-02-11T08:42:22;36.17;;;19.08;;
44189;SDS011;29856;52.144;5.430;2023-02-11T08:44:48;47.55;;;21.70;;
44189;SDS011;29856;52.144;5.430;2023-02-11T08:47:13;45.80;;;21.17;;
44189;SDS011;29856;52.144;5.430;2023-02-11T08:49:38;39.70;;;20.92;;
44189;SDS011;29856;52.144;5.430;2023-02-11T08:52:04;38.97;;;20.13;;
44189;SDS011;29856;52.144;5.430;2023-02-11T08:54:30;40.78;;;20.20;;
44189;SDS011;29856;52.144;5.430;2023-02-11T08:56:55;44.63;;;22.15;;
44189;SDS011;29856;52.144;5.430;2023-02-11T08:59:21;36.40;;;21.23;;
44189;SDS011;29856;52.144;5.430;2023-02-11T09:01:47;41.22;;;21.67;;
44189;SDS011;29856;52.144;5.430;2023-02-11T09:04:13;40.13;;;20.88;;
44189;SDS011;29856;52.144;5.430;2023-02-11T09:06:38;38.08;;;21.10;;
44189;SDS011;29856;52.144;5.430;2023-02-11T09:09:04;37.58;;;21.48;;
44189;SDS011;29856;52.144;5.430;2023-02-11T09:11:31;37.60;;;20.60;;
44189;SDS011;29856;52.144;5.430;2023-02-11T09:13:58;37.65;;;21.02;;
44189;SDS011;29856;52.144;5.430;2023-02-11T09:16:26;38.10;;;21.60;;
44189;SDS011;29856;52.144;5.430;2023-02-11T09:18:55;36.25;;;20.83;;
44189;SDS011;29856;52.144;5.430;2023-02-11T09:21:21;39.58;;;20.52;;
44189;SDS011;29856;52.144;5.430;2023-02-11T09:23:47;38.25;;;20.63;;
44189;SDS011;29856;52.144;5.430;2023-02-11T09:26:14;32.08;;;19.48;;
44189;SDS011;29856;52.144;5.430;2023-02-11T09:28:41;37.92;;;20.20;;
44189;SDS011;29856;52.144;5.430;2023-02-11T09:31:08;36.30;;;20.25;;
44189;SDS011;29856;52.144;5.430;2023-02-11T09:33:36;33.83;;;19.67;;
44189;SDS011;29856;52.144;5.430;2023-02-11T09:36:04;36.70;;;18.50;;
44189;SDS011;29856;52.144;5.430;2023-02-11T09:38:30;33.53;;;19.35;;
44189;SDS011;29856;52.144;5.430;2023-02-11T09:40:55;34.40;;;17.90;;
44189;SDS011;29856;52.144;5.430;2023-02-11T09:43:22;35.50;;;19.75;;
44189;SDS011;29856;52.144;5.430;2023-02-11T09:45:57;32.78;;;18.48;;
44189;SDS011;29856;52.144;5.430;2023-02-11T09:48:23;35.88;;;18.00;;
44189;SDS011;29856;52.144;5.430;2023-02-11T09:50:50;29.65;;;17.00;;
44189;SDS011;29856;52.144;5.430;2023-02-11T09:53:23;33.85;;;15.52;;
44189;SDS011;29856;52.144;5.430;2023-02-11T09:55:51;33.33;;;18.70;;
44189;SDS011;29856;52.144;5.430;2023-02-11T09:58:37;31.45;;;17.20;;
44189;SDS011;29856;52.144;5.430;2023-02-11T10:03:52;34.13;;;17.25;;
44189;SDS011;29856;52.144;5.430;2023-02-11T10:06:54;26.85;;;16.10;;
44189;SDS011;29856;52.144;5.430;2023-02-11T10:23:26;29.75;;;17.58;;
44189;SDS011;29856;52.144;5.430;2023-02-11T10:25:57;21.52;;;14.70;;
44189;SDS011;29856;52.144;5.430;2023-02-11T10:28:26;28.15;;;15.45;;
44189;SDS011;29856;52.144;5.430;2023-02-11T10:31:02;28.35;;;15.32;;
44189;SDS011;29856;52.144;5.430;2023-02-11T10:36:11;25.45;;;14.40;;
44189;SDS011;29856;52.144;5.430;2023-02-11T10:38:38;21.05;;;14.13;;
44189;SDS011;29856;52.144;5.430;2023-02-11T10:41:04;22.00;;;13.40;;
44189;SDS011;29856;52.144;5.430;2023-02-11T10:43:30;21.50;;;14.73;;
44189;SDS011;29856;52.144;5.430;2023-02-11T10:45:58;28.17;;;13.95;;
44189;SDS011;29856;52.144;5.430;2023-02-11T10:51:25;26.80;;;13.25;;
44189;SDS011;29856;52.144;5.430;2023-02-11T10:56:30;24.38;;;13.15;;
44189;SDS011;29856;52.144;5.430;2023-02-11T11:04:47;19.50;;;12.30;;
44189;SDS011;29856;52.144;5.430;2023-02-11T11:07:17;23.50;;;13.73;;
44189;SDS011;29856;52.144;5.430;2023-02-11T11:09:51;25.63;;;13.55;;
44189;SDS011;29856;52.144;5.430;2023-02-11T11:15:28;21.88;;;13.02;;
44189;SDS011;29856;52.144;5.430;2023-02-11T11:18:08;21.88;;;13.60;;
44189;SDS011;29856;52.144;5.430;2023-02-11T11:20:34;27.25;;;13.13;;
44189;SDS011;29856;52.144;5.430;2023-02-11T11:23:16;21.08;;;12.50;;
44189;SDS011;29856;52.144;5.430;2023-02-11T11:25:44;21.40;;;12.32;;
44189;SDS011;29856;52.144;5.430;2023-02-11T11:28:25;19.98;;;12.43;;
44189;SDS011;29856;52.144;5.430;2023-02-11T11:30:53;22.70;;;12.50;;
44189;SDS011;29856;52.144;5.430;2023-02-11T11:33:24;20.13;;;12.32;;
44189;SDS011;29856;52.144;5.430;2023-02-11T11:38:35;21.02;;;11.93;;
44189;SDS011;29856;52.144;5.430;2023-02-11T11:41:12;20.40;;;11.13;;
44189;SDS011;29856;52.144;5.430;2023-02-11T11:46:26;19.23;;;10.98;;
44189;SDS011;29856;52.144;5.430;2023-02-11T11:49:18;17.52;;;11.00;;
44189;SDS011;29856;52.144;5.430;2023-02-11T11:51:57;14.45;;;10.20;;
44189;SDS011;29856;52.144;5.430;2023-02-11T11:55:10;22.65;;;11.35;;
44189;SDS011;29856;52.144;5.430;2023-02-11T11:57:43;21.45;;;11.55;;
44189;SDS011;29856;52.144;5.430;2023-02-11T12:00:13;17.15;;;11.25;;
44189;SDS011;29856;52.144;5.430;2023-02-11T12:05:28;14.30;;;9.70;;
44189;SDS011;29856;52.144;5.430;2023-02-11T12:13:31;9.32;;;7.63;;
44189;SDS011;29856;52.144;5.430;2023-02-11T12:16:34;12.25;;;8.02;;
44189;SDS011;29856;52.144;5.430;2023-02-11T12:19:16;14.90;;;8.52;;
44189;SDS011;29856;52.144;5.430;2023-02-11T12:22:06;15.88;;;7.93;;
44189;SDS011;29856;52.144;5.430;2023-02-11T12:27:47;11.82;;;7.50;;
44189;SDS011;29856;52.144;5.430;2023-02-11T12:35:47;12.30;;;7.55;;
44189;SDS011;29856;52.144;5.430;2023-02-11T12:38:20;12.90;;;6.93;;
44189;SDS011;29856;52.144;5.430;2023-02-11T12:44:36;15.40;;;6.32;;
44189;SDS011;29856;52.144;5.430;2023-02-11T12:52:47;9.90;;;6.88;;
44189;SDS011;29856;52.144;5.430;2023-02-11T12:55:24;12.60;;;6.70;;
44189;SDS011;29856;52.144;5.430;2023-02-11T12:57:52;12.07;;;6.53;;
44189;SDS011;29856;52.144;5.430;2023-02-11T13:00:24;10.45;;;5.78;;
44189;SDS011;29856;52.144;5.430;2023-02-11T13:03:14;10.77;;;6.40;;
44189;SDS011;29856;52.144;5.430;2023-02-11T13:08:28;12.25;;;6.07;;
44189;SDS011;29856;52.144;5.430;2023-02-11T13:11:03;10.10;;;5.72;;
44189;SDS011;29856;52.144;5.430;2023-02-11T13:14:17;11.82;;;6.82;;
44189;SDS011;29856;52.144;5.430;2023-02-11T13:19:05;11.02;;;6.63;;
44189;SDS011;29856;52.144;5.430;2023-02-11T13:27:07;11.70;;;6.75;;
44189;SDS011;29856;52.144;5.430;2023-02-11T13:35:28;12.73;;;6.43;;
44189;SDS011;29856;52.144;5.430;2023-02-11T13:38:26;10.23;;;6.45;;
44189;SDS011;29856;52.144;5.430;2023-02-11T13:41:05;11.45;;;6.43;;
44189;SDS011;29856;52.144;5.430;2023-02-11T13:43:41;12.75;;;6.45;;
44189;SDS011;29856;52.144;5.430;2023-02-11T13:46:08;9.73;;;6.20;;
44189;SDS011;29856;52.144;5.430;2023-02-11T13:48:37;12.77;;;6.75;;
44189;SDS011;29856;52.144;5.430;2023-02-11T13:51:09;13.27;;;6.70;;
44189;SDS011;29856;52.144;5.430;2023-02-11T13:56:22;10.50;;;6.45;;
44189;SDS011;29856;52.144;5.430;2023-02-11T13:58:52;10.82;;;6.47;;
44189;SDS011;29856;52.144;5.430;2023-02-11T14:04:05;9.70;;;6.57;;
44189;SDS011;29856;52.144;5.430;2023-02-11T14:07:20;13.68;;;6.97;;
44189;SDS011;29856;52.144;5.430;2023-02-11T14:09:57;12.13;;;6.50;;
44189;SDS011;29856;52.144;5.430;2023-02-11T14:12:24;10.73;;;6.70;;
44189;SDS011;29856;52.144;5.430;2023-02-11T14:15:00;12.95;;;6.20;;
44189;SDS011;29856;52.144;5.430;2023-02-11T14:17:26;9.27;;;6.30;;
44189;SDS011;29856;52.144;5.430;2023-02-11T14:19:52;17.42;;;7.50;;
44189;SDS011;29856;52.144;5.430;2023-02-11T14:22:24;8.65;;;6.28;;
44189;SDS011;29856;52.144;5.430;2023-02-11T14:41:25;10.85;;;6.93;;
44189;SDS011;29856;52.144;5.430;2023-02-11T14:43:54;9.77;;;6.07;;
44189;SDS011;29856;52.144;5.430;2023-02-11T14:46:25;9.23;;;5.93;;
44189;SDS011;29856;52.144;5.430;2023-02-11T14:48:53;13.65;;;7.10;;
44189;SDS011;29856;52.144;5.430;2023-02-11T14:51:31;14.15;;;6.57;;
44189;SDS011;29856;52.144;5.430;2023-02-11T14:54:02;10.70;;;5.95;;
44189;SDS011;29856;52.144;5.430;2023-02-11T14:56:35;12.07;;;6.10;;
44189;SDS011;29856;52.144;5.430;2023-02-11T14:59:00;11.00;;;6.22;;
44189;SDS011;29856;52.144;5.430;2023-02-11T15:01:27;12.75;;;6.53;;
44189;SDS011;29856;52.144;5.430;2023-02-11T15:04:04;10.70;;;6.30;;
44189;SDS011;29856;52.144;5.430;2023-02-11T15:06:45;10.48;;;5.68;;
44189;SDS011;29856;52.144;5.430;2023-02-11T15:09:13;15.60;;;7.65;;
44189;SDS011;29856;52.144;5.430;2023-02-11T15:11:43;16.90;;;11.63;;
44189;SDS011;29856;52.144;5.430;2023-02-11T15:14:25;10.02;;;6.20;;
44189;SDS011;29856;52.144;5.430;2023-02-11T15:16:53;12.30;;;6.38;;
44189;SDS011;29856;52.144;5.430;2023-02-11T15:19:31;11.00;;;5.93;;
44189;SDS011;29856;52.144;5.430;2023-02-11T15:22:03;8.82;;;6.03;;
44189;SDS011;29856;52.144;5.430;2023-02-11T15:24:32;10.43;;;5.85;;
44189;SDS011;29856;52.144;5.430;2023-02-11T15:29:38;9.43;;;5.65;;
44189;SDS011;29856;52.144;5.430;2023-02-11T15:34:33;12.15;;;6.40;;
44189;SDS011;29856;52.144;5.430;2023-02-11T15:36:59;14.00;;;5.90;;
44189;SDS011;29856;52.144;5.430;2023-02-11T15:39:33;14.00;;;5.80;;
44189;SDS011;29856;52.144;5.430;2023-02-11T15:42:18;8.05;;;5.82;;
44189;SDS011;29856;52.144;5.430;2023-02-11T15:47:35;11.32;;;6.15;;
44189;SDS011;29856;52.144;5.430;2023-02-11T15:50:01;11.75;;;6.85;;
44189;SDS011;29856;52.144;5.430;2023-02-11T15:52:27;9.88;;;6.22;;
44189;SDS011;29856;52.144;5.430;2023-02-11T15:54:53;11.18;;;6.20;;
44189;SDS011;29856;52.144;5.430;2023-02-11T15:57:21;11.30;;;7.32;;
44189;SDS011;29856;52.144;5.430;2023-02-11T15:59:48;10.70;;;6.00;;
44189;SDS011;29856;52.144;5.430;2023-02-11T16:02:17;14.48;;;6.97;;
44189;SDS011;29856;52.144;5.430;2023-02-11T16:04:53;10.25;;;6.28;;
44189;SDS011;29856;52.144;5.430;2023-02-11T16:12:51;8.95;;;5.88;;
44189;SDS011;29856;52.144;5.430;2023-02-11T16:18:03;15.23;;;6.15;;
44189;SDS011;29856;52.144;5.430;2023-02-11T16:20:49;6.97;;;5.60;;
44189;SDS011;29856;52.144;5.430;2023-02-11T16:23:25;12.75;;;6.43;;
44189;SDS011;29856;52.144;5.430;2023-02-11T16:25:55;13.95;;;6.43;;
44189;SDS011;29856;52.144;5.430;2023-02-11T16:28:23;9.20;;;5.97;;
44189;SDS011;29856;52.144;5.430;2023-02-11T16:30:53;12.27;;;6.03;;
44189;SDS011;29856;52.144;5.430;2023-02-11T16:33:19;15.23;;;6.68;;
44189;SDS011;29856;52.144;5.430;2023-02-11T16:35:45;15.18;;;6.50;;
44189;SDS011;29856;52.144;5.430;2023-02-11T16:38:10;10.93;;;6.20;;
44189;SDS011;29856;52.144;5.430;2023-02-11T16:40:36;13.80;;;6.30;;
44189;SDS011;29856;52.144;5.430;2023-02-11T16:43:01;9.95;;;5.50;;
44189;SDS011;29856;52.144;5.430;2023-02-11T16:45:27;14.50;;;6.25;;
44189;SDS011;29856;52.144;5.430;2023-02-11T16:47:52;9.73;;;5.95;;
44189;SDS011;29856;52.144;5.430;2023-02-11T16:50:20;10.43;;;6.32;;
44189;SDS011;29856;52.144;5.430;2023-02-11T16:52:47;11.95;;;5.78;;
44189;SDS011;29856;52.144;5.430;2023-02-11T16:55:13;14.75;;;5.90;;
44189;SDS011;29856;52.144;5.430;2023-02-11T16:57:38;17.10;;;6.40;;
44189;SDS011;29856;52.144;5.430;2023-02-11T17:00:07;15.48;;;6.10;;
44189;SDS011;29856;52.144;5.430;2023-02-11T17:02:33;13.05;;;6.25;;
44189;SDS011;29856;52.144;5.430;2023-02-11T17:05:01;11.50;;;6.05;;
44189;SDS011;29856;52.144;5.430;2023-02-11T17:07:28;13.15;;;5.63;;
44189;SDS011;29856;52.144;5.430;2023-02-11T17:09:54;11.73;;;5.85;;
44189;SDS011;29856;52.144;5.430;2023-02-11T17:12:20;15.40;;;5.80;;
44189;SDS011;29856;52.144;5.430;2023-02-11T17:14:46;13.75;;;6.53;;
44189;SDS011;29856;52.144;5.430;2023-02-11T17:17:11;10.15;;;5.85;;
44189;SDS011;29856;52.144;5.430;2023-02-11T17:19:37;31.10;;;20.15;;